TimePST,TemperatureF,Dew PointF,Humidity,Sea Level PressureIn,VisibilityMPH,Wind Direction,Wind SpeedMPH,Gust SpeedMPH,PrecipitationIn,Events,Conditions,WindDirDegrees,DateUTC
12:31 AM,33.8,32.0,93,30.06,10.0,Calm,Calm,-,0.01,Rain,Light Rain,0,2013-02-08 08:31:00
12:56 AM,34.0,33.1,96,30.10,10.0,SSW,4.6,-,0.01,,Overcast,200,2013-02-08 08:56:00
1:24 AM,33.8,33.8,100,30.07,1.2,Calm,Calm,-,N/A,,Overcast,0,2013-02-08 09:24:00
1:31 AM,33.8,33.8,100,30.07,0.5,Calm,Calm,-,N/A,Fog,Fog,0,2013-02-08 09:31:00
1:51 AM,33.8,33.8,100,30.07,1.5,Calm,Calm,-,0.00,,Overcast,0,2013-02-08 09:51:00
1:56 AM,34.0,33.1,96,30.11,5.0,Calm,Calm,-,0.00,Rain,Light Rain,0,2013-02-08 09:56:00
2:56 AM,34.0,33.1,96,30.12,10.0,Calm,Calm,-,0.00,,Overcast,0,2013-02-08 10:56:00
3:03 AM,33.8,33.8,100,30.08,10.0,Calm,Calm,-,N/A,,Overcast,0,2013-02-08 11:03:00
3:13 AM,33.8,33.8,100,30.08,8.0,Calm,Calm,-,N/A,,Overcast,0,2013-02-08 11:13:00
3:51 AM,33.8,33.8,100,30.08,1.8,Calm,Calm,-,N/A,,Overcast,0,2013-02-08 11:51:00
3:53 AM,33.8,33.8,100,30.08,1.0,Calm,Calm,-,N/A,,Overcast,0,2013-02-08 11:53:00
3:56 AM,34.0,33.1,96,30.12,0.5,Calm,Calm,-,N/A,Fog,Fog,0,2013-02-08 11:56:00
4:13 AM,33.8,33.8,100,30.08,1.5,Calm,Calm,-,N/A,,Overcast,0,2013-02-08 12:13:00
4:16 AM,33.8,33.8,100,30.08,3.0,Calm,Calm,-,N/A,,Overcast,0,2013-02-08 12:16:00
4:30 AM,33.8,33.8,100,30.08,10.0,Calm,Calm,-,N/A,,Overcast,0,2013-02-08 12:30:00
4:43 AM,33.8,33.8,100,30.08,10.0,Calm,Calm,-,N/A,,Overcast,0,2013-02-08 12:43:00
4:56 AM,34.0,33.1,96,30.12,3.0,Calm,Calm,-,N/A,,Overcast,0,2013-02-08 12:56:00
5:04 AM,33.8,33.8,100,30.08,2.5,Calm,Calm,-,N/A,,Overcast,0,2013-02-08 13:04:00
5:13 AM,33.8,33.8,100,30.08,5.0,Calm,Calm,-,N/A,,Overcast,0,2013-02-08 13:13:00
5:56 AM,34.0,33.1,96,30.13,8.0,SSE,3.5,-,N/A,,Overcast,150,2013-02-08 13:56:00
6:41 AM,33.8,33.8,100,30.10,5.0,Calm,Calm,-,N/A,,Overcast,0,2013-02-08 14:41:00
6:51 AM,33.8,33.8,100,30.10,1.8,North,3.5,-,N/A,,Overcast,360,2013-02-08 14:51:00
6:54 AM,33.8,32.0,93,30.10,0.8,North,3.5,-,N/A,,Overcast,360,2013-02-08 14:54:00
6:56 AM,33.1,32.0,96,30.14,0.5,North,3.5,-,N/A,Fog,Fog,10,2013-02-08 14:56:00
6:59 AM,33.8,32.0,93,30.10,0.2,Calm,Calm,-,N/A,Fog,Fog,0,2013-02-08 14:59:00
7:16 AM,33.8,32.0,93,30.10,10.0,Calm,Calm,-,N/A,,Mostly Cloudy,0,2013-02-08 15:16:00
7:41 AM,33.8,33.8,100,30.11,10.0,Calm,Calm,-,N/A,,Overcast,0,2013-02-08 15:41:00
7:56 AM,34.0,33.1,96,30.11,2.0,Calm,Calm,-,N/A,,Overcast,0,2013-02-08 15:56:00
8:16 AM,33.8,33.8,100,30.12,3.0,Calm,Calm,-,N/A,,Overcast,0,2013-02-08 16:16:00
8:50 AM,33.8,33.8,100,30.12,3.0,Calm,Calm,-,N/A,,Overcast,0,2013-02-08 16:50:00
8:56 AM,34.0,33.1,96,30.17,3.0,Calm,Calm,-,N/A,,Overcast,0,2013-02-08 16:56:00
9:03 AM,33.8,33.8,100,30.13,1.0,Calm,Calm,-,N/A,,Overcast,0,2013-02-08 17:03:00
9:09 AM,35.6,33.8,93,30.13,2.0,Calm,Calm,-,N/A,,Overcast,0,2013-02-08 17:09:00
9:18 AM,35.6,33.8,93,30.13,4.0,Calm,Calm,-,N/A,,Overcast,0,2013-02-08 17:18:00
9:44 AM,35.6,33.8,93,30.13,6.0,WNW,3.5,-,N/A,,Overcast,290,2013-02-08 17:44:00
9:56 AM,35.1,34.0,96,30.17,5.0,Calm,Calm,-,N/A,,Overcast,0,2013-02-08 17:56:00
10:45 AM,37.4,35.6,93,30.14,10.0,Calm,Calm,-,N/A,,Overcast,0,2013-02-08 18:45:00
10:56 AM,37.0,35.1,93,30.17,10.0,Calm,Calm,-,N/A,,Overcast,0,2013-02-08 18:56:00
11:56 AM,37.9,34.0,86,30.16,10.0,Calm,Calm,-,N/A,,Overcast,0,2013-02-08 19:56:00
12:19 PM,37.4,35.6,93,30.12,10.0,Calm,Calm,-,N/A,,Overcast,0,2013-02-08 20:19:00
12:56 PM,39.0,34.0,82,30.15,10.0,Calm,Calm,-,N/A,,Overcast,0,2013-02-08 20:56:00
1:03 PM,39.2,33.8,81,30.11,10.0,Calm,Calm,-,N/A,,Overcast,0,2013-02-08 21:03:00
1:56 PM,39.9,34.0,79,30.13,10.0,Calm,Calm,-,N/A,,Overcast,0,2013-02-08 21:56:00
2:07 PM,39.2,33.8,81,30.10,10.0,Calm,Calm,-,N/A,,Overcast,0,2013-02-08 22:07:00
2:56 PM,39.9,33.1,77,30.14,10.0,Calm,Calm,-,N/A,,Overcast,0,2013-02-08 22:56:00
3:19 PM,39.2,33.8,81,30.11,10.0,SE,3.5,-,N/A,,Overcast,140,2013-02-08 23:19:00
3:35 PM,39.2,33.8,81,30.10,10.0,SE,5.8,-,N/A,,Overcast,130,2013-02-08 23:35:00
3:52 PM,39.2,33.8,81,30.10,10.0,SSE,4.6,-,N/A,,Overcast,150,2013-02-08 23:52:00
3:56 PM,39.9,34.0,79,30.14,10.0,SE,4.6,-,N/A,,Overcast,130,2013-02-08 23:56:00
4:20 PM,39.2,33.8,81,30.10,10.0,SE,4.6,-,N/A,,Overcast,130,2013-02-09 00:20:00
4:56 PM,39.0,34.0,82,30.14,10.0,SE,4.6,-,N/A,,Overcast,130,2013-02-09 00:56:00
5:56 PM,39.0,34.0,82,30.14,10.0,Calm,Calm,-,N/A,,Overcast,0,2013-02-09 01:56:00
6:56 PM,39.0,34.0,82,30.15,10.0,Calm,Calm,-,N/A,,Overcast,0,2013-02-09 02:56:00
7:56 PM,37.9,33.1,83,30.14,10.0,SSE,3.5,-,N/A,,Overcast,150,2013-02-09 03:56:00
8:56 PM,37.9,33.1,83,30.16,10.0,Calm,Calm,-,N/A,,Overcast,0,2013-02-09 04:56:00
9:56 PM,36.0,32.0,86,30.14,10.0,SSW,4.6,-,N/A,,Mostly Cloudy,200,2013-02-09 05:56:00
10:56 PM,36.0,30.9,82,30.15,10.0,West,3.5,-,N/A,,Overcast,260,2013-02-09 06:56:00
11:56 PM,36.0,30.9,82,30.15,10.0,Calm,Calm,-,N/A,,Overcast,0,2013-02-09 07:56:00